Aérodrome :
LOGIN :

S'inscrire | Disclaimer

   EN    FR    IT 

 










Légende :    VFR   VFR Marginal   IFR   IFR Intensif   IFR Très Intensif
Visi : 
Plafond : 
>= 8 km
>= 3000ft
5 à 8 km
1000 à 3000 ft
1500m à 5 km
500 à 1000 ft
800 à 1500m
200 à 500 ft
< 800m
< 200 ft
Symboles :   Orages  Brouillard  Fortes neiges  Fortes précipitations  Vent > 20 kt
SIGMETs :   Divers  Orages  Givrage  Turbulence  Onde Orograph.  Cendres Volcan.







- Altitude de l'aérodrome : 479 ft
- Code IATA : DOL
- Voir les cartes d'approche


LFRG - Deauville

DERNIER METAR :
  • 281200Z AUTO 33009KT 290V030 9999 SCT021 SCT027 OVC064 12/06 Q1018 TEMPO SHRA

METARs EXPIRÉS :
  • 281130Z AUTO 35008KT 300V050 9999 FEW023 OVC064 12/05 Q1018 TEMPO SHRA
  • 281100Z AUTO 33009KT 290V020 9999 BKN018/// OVC062/// ///TCU 11/06 Q1018 TEMPO SHRA BECMG BKN020
  • 281030Z AUTO 34008KT 300V030 9999 BKN017 BKN024 BKN031 10/06 Q1018 TEMPO SHRA BKN013
  • 281000Z AUTO 34007KT 290V040 9999 BKN017 BKN022 BKN028 11/06 Q1018 TEMPO SHRA BKN013
  • 280930Z AUTO 33008KT 300V020 9999 SCT016 BKN024 BKN060 10/06 Q1018 TEMPO SHRA BKN013

TAF TAF LFRG
Valide du 28 à 12h jusqu'au 28 à 21h UTC


281100Z 2812/2821 31010KT 9999 BKN030
TEMPO 2812/2814 5000 SHRA BKN015
BECMG 2816/2818 31005KT
ATIS : +33 2 31 65 65 36
Pas de NOTAMs connus pour ce terrain.



MET'MAP, la Météo Aéronautique d'un coup d'oeil ! - Copyright ORBIFLY Décembre 2007 - Disclaimer

ORBIFLY MET'MAP TEAM :

Programmation & Développement : Alexandra Zaïnal
Conception & Développement : Baudouin d'Aumeries
Co-Programmation & Développement : Marc-Olivier Méhu
Soutien technique & logistique : Manuel Goepfert

Contact : metmap@orbifly.com




SOURCES & CREDITS :

   NOAA